sensor_id;sensor_type;location;lat;lon;timestamp;pressure;altitude;pressure_sealevel;temperature;humidity
5455;BME280;2750;49.050;9.250;2022-12-18T00:01:46;100014.38;;;-5.94;75.53
5455;BME280;2750;49.050;9.250;2022-12-18T00:06:50;100004.38;;;-5.91;75.62
5455;BME280;2750;49.050;9.250;2022-12-18T00:11:51;99997.88;;;-6.07;76.48
5455;BME280;2750;49.050;9.250;2022-12-18T00:16:52;100002.41;;;-5.98;75.61
5455;BME280;2750;49.050;9.250;2022-12-18T00:21:55;100007.47;;;-5.98;75.46
5455;BME280;2750;49.050;9.250;2022-12-18T00:26:58;100008.94;;;-6.03;74.86
5455;BME280;2750;49.050;9.250;2022-12-18T00:31:59;100000.19;;;-5.91;74.97
5455;BME280;2750;49.050;9.250;2022-12-18T00:37:02;100005.19;;;-6.13;74.52
5455;BME280;2750;49.050;9.250;2022-12-18T00:42:04;99995.34;;;-6.07;74.31
5455;BME280;2750;49.050;9.250;2022-12-18T00:47:23;100013.50;;;-6.15;74.55
5455;BME280;2750;49.050;9.250;2022-12-18T00:52:26;100008.47;;;-6.15;74.29
5455;BME280;2750;49.050;9.250;2022-12-18T00:57:27;100013.03;;;-6.07;73.66
5455;BME280;2750;49.050;9.250;2022-12-18T01:02:29;100014.44;;;-6.34;74.22
5455;BME280;2750;49.050;9.250;2022-12-18T01:07:32;100017.56;;;-6.40;74.76
5455;BME280;2750;49.050;9.250;2022-12-18T01:12:33;100020.59;;;-6.28;75.18
5455;BME280;2750;49.050;9.250;2022-12-18T01:17:35;100021.47;;;-6.06;74.83
5455;BME280;2750;49.050;9.250;2022-12-18T01:22:38;100026.56;;;-6.46;75.12
5455;BME280;2750;49.050;9.250;2022-12-18T01:27:39;100035.00;;;-6.46;77.83
5455;BME280;2750;49.050;9.250;2022-12-18T01:32:41;100034.72;;;-6.33;77.76
5455;BME280;2750;49.050;9.250;2022-12-18T01:37:44;100038.25;;;-6.28;77.36
5455;BME280;2750;49.050;9.250;2022-12-18T01:42:50;100025.34;;;-6.14;76.60
5455;BME280;2750;49.050;9.250;2022-12-18T01:47:53;100024.41;;;-6.16;76.26
5455;BME280;2750;49.050;9.250;2022-12-18T01:52:59;100029.91;;;-6.26;75.80
5455;BME280;2750;49.050;9.250;2022-12-18T01:58:01;100013.50;;;-6.15;76.19
5455;BME280;2750;49.050;9.250;2022-12-18T02:03:03;100026.63;;;-6.24;76.29
5455;BME280;2750;49.050;9.250;2022-12-18T02:08:10;100029.47;;;-6.37;76.87
5455;BME280;2750;49.050;9.250;2022-12-18T02:13:19;100028.03;;;-6.31;75.50
5455;BME280;2750;49.050;9.250;2022-12-18T02:18:24;100039.31;;;-6.22;76.23
5455;BME280;2750;49.050;9.250;2022-12-18T02:23:45;100027.06;;;-6.13;76.23
5455;BME280;2750;49.050;9.250;2022-12-18T02:28:53;100023.16;;;-6.05;75.59
5455;BME280;2750;49.050;9.250;2022-12-18T02:33:58;100025.06;;;-6.20;74.88
5455;BME280;2750;49.050;9.250;2022-12-18T02:39:02;100042.34;;;-6.10;75.17
5455;BME280;2750;49.050;9.250;2022-12-18T02:44:09;100043.13;;;-6.53;74.89
5455;BME280;2750;49.050;9.250;2022-12-18T02:49:21;100061.34;;;-6.79;76.32
5455;BME280;2750;49.050;9.250;2022-12-18T02:54:37;100063.50;;;-6.28;75.51
5455;BME280;2750;49.050;9.250;2022-12-18T02:59:48;100060.50;;;-6.19;74.62
5455;BME280;2750;49.050;9.250;2022-12-18T03:04:56;100051.69;;;-6.28;74.60
5455;BME280;2750;49.050;9.250;2022-12-18T03:10:01;100047.13;;;-6.16;74.31
5455;BME280;2750;49.050;9.250;2022-12-18T03:15:09;100045.16;;;-6.23;73.58
5455;BME280;2750;49.050;9.250;2022-12-18T03:20:14;100036.78;;;-6.22;74.58
5455;BME280;2750;49.050;9.250;2022-12-18T03:25:17;100036.34;;;-6.12;74.29
5455;BME280;2750;49.050;9.250;2022-12-18T03:30:21;100049.91;;;-6.31;73.48
5455;BME280;2750;49.050;9.250;2022-12-18T03:35:26;100053.72;;;-6.41;74.11
5455;BME280;2750;49.050;9.250;2022-12-18T03:40:35;100052.53;;;-6.49;74.64
5455;BME280;2750;49.050;9.250;2022-12-18T03:45:50;100051.59;;;-6.51;73.98
5455;BME280;2750;49.050;9.250;2022-12-18T03:50:56;100054.22;;;-6.68;73.71
5455;BME280;2750;49.050;9.250;2022-12-18T03:55:59;100056.63;;;-6.71;74.67
5455;BME280;2750;49.050;9.250;2022-12-18T04:01:05;100041.69;;;-6.67;73.54
5455;BME280;2750;49.050;9.250;2022-12-18T04:06:08;100049.44;;;-6.62;73.94
5455;BME280;2750;49.050;9.250;2022-12-18T04:11:11;100045.78;;;-6.69;73.16
5455;BME280;2750;49.050;9.250;2022-12-18T04:16:14;100056.84;;;-7.05;74.31
5455;BME280;2750;49.050;9.250;2022-12-18T04:21:15;100064.25;;;-6.89;74.87
5455;BME280;2750;49.050;9.250;2022-12-18T04:26:17;100064.53;;;-7.21;74.50
5455;BME280;2750;49.050;9.250;2022-12-18T04:31:20;100063.66;;;-7.59;77.44
5455;BME280;2750;49.050;9.250;2022-12-18T04:36:21;100067.31;;;-7.15;75.97
5455;BME280;2750;49.050;9.250;2022-12-18T04:41:23;100074.88;;;-7.15;75.21
5455;BME280;2750;49.050;9.250;2022-12-18T04:46:25;100069.94;;;-7.12;74.99
5455;BME280;2750;49.050;9.250;2022-12-18T04:51:27;100069.03;;;-6.95;74.00
5455;BME280;2750;49.050;9.250;2022-12-18T04:56:31;100068.16;;;-7.15;76.37
5455;BME280;2750;49.050;9.250;2022-12-18T05:01:34;100062.13;;;-6.99;76.52
5455;BME280;2750;49.050;9.250;2022-12-18T05:06:35;100062.56;;;-6.90;76.95
5455;BME280;2750;49.050;9.250;2022-12-18T05:11:37;100058.31;;;-7.28;76.69
5455;BME280;2750;49.050;9.250;2022-12-18T05:16:40;100052.38;;;-6.92;77.20
5455;BME280;2750;49.050;9.250;2022-12-18T05:21:41;100061.94;;;-6.85;76.72
5455;BME280;2750;49.050;9.250;2022-12-18T05:26:43;100059.47;;;-7.21;76.03
5455;BME280;2750;49.050;9.250;2022-12-18T05:31:46;100060.25;;;-7.42;76.01
5455;BME280;2750;49.050;9.250;2022-12-18T05:36:47;100075.97;;;-7.83;76.92
5455;BME280;2750;49.050;9.250;2022-12-18T05:41:49;100085.06;;;-7.86;78.35
5455;BME280;2750;49.050;9.250;2022-12-18T05:46:52;100086.25;;;-7.23;76.92
5455;BME280;2750;49.050;9.250;2022-12-18T05:51:53;100092.38;;;-6.99;75.50
5455;BME280;2750;49.050;9.250;2022-12-18T05:56:55;100102.38;;;-7.20;75.22
5455;BME280;2750;49.050;9.250;2022-12-18T06:01:58;100097.19;;;-7.05;75.10
5455;BME280;2750;49.050;9.250;2022-12-18T06:07:00;100077.25;;;-7.18;73.76
5455;BME280;2750;49.050;9.250;2022-12-18T06:12:01;100084.59;;;-7.60;76.43
5455;BME280;2750;49.050;9.250;2022-12-18T06:17:04;100083.22;;;-7.16;75.93
5455;BME280;2750;49.050;9.250;2022-12-18T06:22:05;100096.47;;;-7.01;75.44
5455;BME280;2750;49.050;9.250;2022-12-18T06:27:07;100096.44;;;-7.03;74.44
5455;BME280;2750;49.050;9.250;2022-12-18T06:32:10;100096.72;;;-7.34;74.26
5455;BME280;2750;49.050;9.250;2022-12-18T06:37:11;100101.56;;;-7.56;74.97
5455;BME280;2750;49.050;9.250;2022-12-18T06:42:13;100102.97;;;-7.26;75.13
5455;BME280;2750;49.050;9.250;2022-12-18T06:47:16;100086.38;;;-7.40;75.00
5455;BME280;2750;49.050;9.250;2022-12-18T06:52:17;100104.41;;;-7.31;76.15
5455;BME280;2750;49.050;9.250;2022-12-18T06:57:19;100102.91;;;-7.08;75.16
5455;BME280;2750;49.050;9.250;2022-12-18T07:02:22;100113.09;;;-7.06;75.34
5455;BME280;2750;49.050;9.250;2022-12-18T07:07:24;100124.38;;;-6.98;74.09
5455;BME280;2750;49.050;9.250;2022-12-18T07:12:26;100129.25;;;-7.01;74.26
5455;BME280;2750;49.050;9.250;2022-12-18T07:17:29;100136.56;;;-6.88;73.94
5455;BME280;2750;49.050;9.250;2022-12-18T07:22:30;100138.56;;;-6.81;73.98
5455;BME280;2750;49.050;9.250;2022-12-18T07:27:32;100136.44;;;-6.91;74.78
5455;BME280;2750;49.050;9.250;2022-12-18T07:32:35;100141.28;;;-6.77;74.37
5455;BME280;2750;49.050;9.250;2022-12-18T07:37:36;100156.97;;;-6.64;74.91
5455;BME280;2750;49.050;9.250;2022-12-18T07:42:38;100160.16;;;-6.49;74.82
5455;BME280;2750;49.050;9.250;2022-12-18T07:47:41;100149.94;;;-6.33;75.04
5455;BME280;2750;49.050;9.250;2022-12-18T07:52:42;100148.41;;;-6.49;75.05
5455;BME280;2750;49.050;9.250;2022-12-18T07:57:44;100148.19;;;-6.34;75.77
5455;BME280;2750;49.050;9.250;2022-12-18T08:02:47;100153.19;;;-5.96;76.54
5455;BME280;2750;49.050;9.250;2022-12-18T08:07:49;100159.38;;;-6.08;76.04
5455;BME280;2750;49.050;9.250;2022-12-18T08:12:50;100164.16;;;-5.95;74.72
5455;BME280;2750;49.050;9.250;2022-12-18T08:17:56;100162.66;;;-5.90;74.52
5455;BME280;2750;49.050;9.250;2022-12-18T08:22:57;100155.28;;;-5.63;74.30
5455;BME280;2750;49.050;9.250;2022-12-18T08:27:58;100158.94;;;-5.57;75.98
5455;BME280;2750;49.050;9.250;2022-12-18T08:33:01;100153.69;;;-5.18;75.81
5455;BME280;2750;49.050;9.250;2022-12-18T08:38:03;100145.69;;;-4.85;76.01
5455;BME280;2750;49.050;9.250;2022-12-18T08:43:05;100152.38;;;-4.63;75.39
5455;BME280;2750;49.050;9.250;2022-12-18T08:48:25;100141.41;;;-4.40;75.72
5455;BME280;2750;49.050;9.250;2022-12-18T08:53:27;100155.41;;;-4.25;75.67
5455;BME280;2750;49.050;9.250;2022-12-18T08:58:29;100151.94;;;-4.04;75.96
5455;BME280;2750;49.050;9.250;2022-12-18T09:03:32;100141.94;;;-3.74;76.11
5455;BME280;2750;49.050;9.250;2022-12-18T09:08:34;100123.00;;;-3.58;77.30
5455;BME280;2750;49.050;9.250;2022-12-18T09:13:36;100116.78;;;-3.41;77.98
5455;BME280;2750;49.050;9.250;2022-12-18T09:18:39;100115.69;;;-2.93;78.39
5455;BME280;2750;49.050;9.250;2022-12-18T09:23:41;100117.13;;;-2.72;78.00
5455;BME280;2750;49.050;9.250;2022-12-18T09:28:43;100116.59;;;-2.91;78.90
5455;BME280;2750;49.050;9.250;2022-12-18T09:33:46;100113.06;;;-2.66;79.63
5455;BME280;2750;49.050;9.250;2022-12-18T09:38:48;100097.00;;;-2.96;80.13
5455;BME280;2750;49.050;9.250;2022-12-18T09:43:51;100098.00;;;-2.60;83.12
5455;BME280;2750;49.050;9.250;2022-12-18T09:48:59;100108.84;;;-2.01;83.08
5455;BME280;2750;49.050;9.250;2022-12-18T09:54:05;100097.41;;;-1.84;84.62
5455;BME280;2750;49.050;9.250;2022-12-18T09:59:18;100081.84;;;-1.62;84.08
5455;BME280;2750;49.050;9.250;2022-12-18T10:04:23;100098.56;;;-1.34;85.25
5455;BME280;2750;49.050;9.250;2022-12-18T10:09:29;100104.78;;;-1.23;83.64
5455;BME280;2750;49.050;9.250;2022-12-18T10:14:41;100100.41;;;-0.89;83.19
5455;BME280;2750;49.050;9.250;2022-12-18T10:19:51;100094.03;;;-0.69;82.95
5455;BME280;2750;49.050;9.250;2022-12-18T10:24:59;100103.13;;;-0.38;82.45
5455;BME280;2750;49.050;9.250;2022-12-18T10:30:12;100111.69;;;-0.33;82.07
5455;BME280;2750;49.050;9.250;2022-12-18T10:35:18;100094.84;;;-0.25;82.70
5455;BME280;2750;49.050;9.250;2022-12-18T10:40:22;100101.81;;;-0.15;82.87
5455;BME280;2750;49.050;9.250;2022-12-18T10:45:23;100111.03;;;-0.22;82.14
5455;BME280;2750;49.050;9.250;2022-12-18T10:50:30;100109.97;;;0.14;82.29
5455;BME280;2750;49.050;9.250;2022-12-18T10:55:34;100098.34;;;0.31;81.86
5455;BME280;2750;49.050;9.250;2022-12-18T11:00:38;100083.25;;;0.44;82.74
5455;BME280;2750;49.050;9.250;2022-12-18T11:05:41;100090.41;;;0.68;82.20
5455;BME280;2750;49.050;9.250;2022-12-18T11:10:46;100086.16;;;0.69;81.34
5455;BME280;2750;49.050;9.250;2022-12-18T11:15:48;100081.31;;;0.87;81.39
5455;BME280;2750;49.050;9.250;2022-12-18T11:20:54;100070.94;;;0.76;82.20
5455;BME280;2750;49.050;9.250;2022-12-18T11:25:57;100070.28;;;0.92;79.71
5455;BME280;2750;49.050;9.250;2022-12-18T11:31:16;100054.84;;;0.82;82.24
5455;BME280;2750;49.050;9.250;2022-12-18T11:36:20;100048.22;;;0.98;81.63
5455;BME280;2750;49.050;9.250;2022-12-18T11:41:26;100056.75;;;0.98;81.22
5455;BME280;2750;49.050;9.250;2022-12-18T11:46:53;100044.28;;;1.24;80.84
5455;BME280;2750;49.050;9.250;2022-12-18T11:52:01;100034.78;;;1.11;81.02
5455;BME280;2750;49.050;9.250;2022-12-18T11:57:09;100033.84;;;1.87;78.99
5455;BME280;2750;49.050;9.250;2022-12-18T12:02:33;100031.50;;;2.14;78.34
5455;BME280;2750;49.050;9.250;2022-12-18T12:07:47;100014.47;;;2.19;76.51
5455;BME280;2750;49.050;9.250;2022-12-18T12:13:01;100012.56;;;1.92;76.96
5455;BME280;2750;49.050;9.250;2022-12-18T12:18:16;100003.22;;;1.98;75.75
5455;BME280;2750;49.050;9.250;2022-12-18T12:23:30;100012.69;;;2.09;76.90
5455;BME280;2750;49.050;9.250;2022-12-18T12:28:53;100006.00;;;2.31;76.06
5455;BME280;2750;49.050;9.250;2022-12-18T12:34:00;100009.78;;;2.98;75.17
5455;BME280;2750;49.050;9.250;2022-12-18T12:39:10;100001.16;;;2.75;74.63
5455;BME280;2750;49.050;9.250;2022-12-18T12:44:17;99999.34;;;2.53;74.78
5455;BME280;2750;49.050;9.250;2022-12-18T12:49:21;100003.06;;;3.32;73.63
5455;BME280;2750;49.050;9.250;2022-12-18T12:54:28;100008.22;;;3.55;72.75
5455;BME280;2750;49.050;9.250;2022-12-18T12:59:37;100018.53;;;4.06;71.48
5455;BME280;2750;49.050;9.250;2022-12-18T13:04:49;100008.16;;;4.58;70.63
5455;BME280;2750;49.050;9.250;2022-12-18T13:10:26;100001.28;;;4.66;70.24
5455;BME280;2750;49.050;9.250;2022-12-18T13:15:32;100008.88;;;4.95;69.53
5455;BME280;2750;49.050;9.250;2022-12-18T13:20:36;100002.81;;;5.15;68.55
5455;BME280;2750;49.050;9.250;2022-12-18T13:25:40;100001.09;;;5.17;68.54
5455;BME280;2750;49.050;9.250;2022-12-18T13:30:47;99991.00;;;4.67;68.63
5455;BME280;2750;49.050;9.250;2022-12-18T13:35:55;99992.63;;;4.94;68.14
5455;BME280;2750;49.050;9.250;2022-12-18T13:41:04;99984.91;;;4.91;67.65
5455;BME280;2750;49.050;9.250;2022-12-18T13:46:24;99973.75;;;4.98;68.24
5455;BME280;2750;49.050;9.250;2022-12-18T13:51:27;99975.56;;;4.69;67.94
5455;BME280;2750;49.050;9.250;2022-12-18T13:56:32;99977.19;;;4.91;67.48
5455;BME280;2750;49.050;9.250;2022-12-18T14:01:34;99973.81;;;4.86;67.76
5455;BME280;2750;49.050;9.250;2022-12-18T14:06:36;99972.00;;;5.03;67.14
5455;BME280;2750;49.050;9.250;2022-12-18T14:11:39;99981.59;;;4.60;67.47
5455;BME280;2750;49.050;9.250;2022-12-18T14:16:41;99979.91;;;4.49;69.00
5455;BME280;2750;49.050;9.250;2022-12-18T14:21:46;99986.81;;;4.27;68.60
5455;BME280;2750;49.050;9.250;2022-12-18T14:26:50;99970.63;;;3.60;70.11
5455;BME280;2750;49.050;9.250;2022-12-18T14:32:10;99979.16;;;3.68;70.55
5455;BME280;2750;49.050;9.250;2022-12-18T14:37:13;99973.13;;;3.29;71.07
5455;BME280;2750;49.050;9.250;2022-12-18T14:42:17;99970.50;;;3.14;71.18
5455;BME280;2750;49.050;9.250;2022-12-18T14:47:18;99974.59;;;2.62;73.05
5455;BME280;2750;49.050;9.250;2022-12-18T14:52:23;99985.63;;;2.45;72.99
5455;BME280;2750;49.050;9.250;2022-12-18T14:57:32;99981.19;;;2.22;74.48
5455;BME280;2750;49.050;9.250;2022-12-18T15:02:38;99985.28;;;1.96;74.04
5455;BME280;2750;49.050;9.250;2022-12-18T15:07:41;99988.50;;;1.68;75.67
5455;BME280;2750;49.050;9.250;2022-12-18T15:12:45;99982.44;;;1.57;76.00
5455;BME280;2750;49.050;9.250;2022-12-18T15:17:47;99983.84;;;1.30;76.79
5455;BME280;2750;49.050;9.250;2022-12-18T15:22:49;99967.56;;;1.19;76.38
5455;BME280;2750;49.050;9.250;2022-12-18T15:27:52;99973.63;;;1.26;76.63
5455;BME280;2750;49.050;9.250;2022-12-18T15:33:22;99970.94;;;1.15;77.52
5455;BME280;2750;49.050;9.250;2022-12-18T15:38:25;99980.09;;;0.96;77.35
5455;BME280;2750;49.050;9.250;2022-12-18T15:43:28;99985.13;;;0.87;77.88
5455;BME280;2750;49.050;9.250;2022-12-18T15:48:39;99976.56;;;0.84;77.86
5455;BME280;2750;49.050;9.250;2022-12-18T15:53:41;99989.28;;;0.81;78.33
5455;BME280;2750;49.050;9.250;2022-12-18T15:58:45;99979.38;;;1.08;77.33
5455;BME280;2750;49.050;9.250;2022-12-18T16:03:46;99985.44;;;1.18;76.17
5455;BME280;2750;49.050;9.250;2022-12-18T16:08:48;99984.47;;;1.08;76.03
5455;BME280;2750;49.050;9.250;2022-12-18T16:13:51;99989.44;;;0.96;77.14
5455;BME280;2750;49.050;9.250;2022-12-18T16:18:52;99982.66;;;0.95;77.19
5455;BME280;2750;49.050;9.250;2022-12-18T16:23:54;99986.03;;;0.94;76.08
5455;BME280;2750;49.050;9.250;2022-12-18T16:28:57;99980.78;;;0.82;77.41
5455;BME280;2750;49.050;9.250;2022-12-18T16:34:12;99975.72;;;0.85;77.15
5455;BME280;2750;49.050;9.250;2022-12-18T16:39:13;99976.13;;;0.51;78.51
5455;BME280;2750;49.050;9.250;2022-12-18T16:44:17;99981.63;;;0.79;78.71
5455;BME280;2750;49.050;9.250;2022-12-18T16:49:18;99983.09;;;0.62;78.54
5455;BME280;2750;49.050;9.250;2022-12-18T16:54:20;99973.22;;;0.89;77.18
5455;BME280;2750;49.050;9.250;2022-12-18T16:59:23;99974.03;;;0.87;77.79
5455;BME280;2750;49.050;9.250;2022-12-18T17:04:25;99978.31;;;0.88;77.74
5455;BME280;2750;49.050;9.250;2022-12-18T17:09:27;99973.91;;;0.75;78.46
5455;BME280;2750;49.050;9.250;2022-12-18T17:14:31;99960.53;;;0.97;77.79
5455;BME280;2750;49.050;9.250;2022-12-18T17:19:32;99962.94;;;0.83;77.35
5455;BME280;2750;49.050;9.250;2022-12-18T17:24:34;99960.28;;;0.76;77.95
5455;BME280;2750;49.050;9.250;2022-12-18T17:29:37;99946.56;;;0.68;78.33
5455;BME280;2750;49.050;9.250;2022-12-18T17:34:39;99937.09;;;0.59;78.00
5455;BME280;2750;49.050;9.250;2022-12-18T17:39:40;99933.84;;;0.71;78.75
5455;BME280;2750;49.050;9.250;2022-12-18T17:44:43;99940.63;;;0.04;80.85
5455;BME280;2750;49.050;9.250;2022-12-18T17:49:45;99945.94;;;0.18;80.49
5455;BME280;2750;49.050;9.250;2022-12-18T17:54:46;99953.72;;;0.28;79.18
5455;BME280;2750;49.050;9.250;2022-12-18T17:59:49;99953.81;;;0.36;78.85
5455;BME280;2750;49.050;9.250;2022-12-18T18:04:51;99937.22;;;0.70;77.87
5455;BME280;2750;49.050;9.250;2022-12-18T18:09:52;99925.56;;;0.91;77.64
5455;BME280;2750;49.050;9.250;2022-12-18T18:14:55;99936.66;;;0.92;76.75
5455;BME280;2750;49.050;9.250;2022-12-18T18:19:56;99944.97;;;0.76;77.19
5455;BME280;2750;49.050;9.250;2022-12-18T18:24:58;99951.22;;;1.02;75.99
5455;BME280;2750;49.050;9.250;2022-12-18T18:30:01;99937.22;;;0.70;76.99
5455;BME280;2750;49.050;9.250;2022-12-18T18:35:03;99924.56;;;0.76;76.60
5455;BME280;2750;49.050;9.250;2022-12-18T18:40:05;99918.06;;;1.08;76.74
5455;BME280;2750;49.050;9.250;2022-12-18T18:45:09;99899.22;;;0.97;76.72
5455;BME280;2750;49.050;9.250;2022-12-18T18:50:10;99902.44;;;0.78;77.12
5455;BME280;2750;49.050;9.250;2022-12-18T18:55:12;99916.22;;;0.92;77.32
5455;BME280;2750;49.050;9.250;2022-12-18T19:00:16;99908.16;;;1.41;76.20
5455;BME280;2750;49.050;9.250;2022-12-18T19:05:17;99907.59;;;1.79;74.50
5455;BME280;2750;49.050;9.250;2022-12-18T19:10:19;99903.28;;;1.75;74.44
5455;BME280;2750;49.050;9.250;2022-12-18T19:15:22;99920.41;;;1.85;73.51
5455;BME280;2750;49.050;9.250;2022-12-18T19:20:23;99908.16;;;1.41;75.18
5455;BME280;2750;49.050;9.250;2022-12-18T19:25:25;99911.41;;;1.22;74.83
5455;BME280;2750;49.050;9.250;2022-12-18T19:30:29;99896.03;;;1.19;76.11
5455;BME280;2750;49.050;9.250;2022-12-18T19:35:31;99890.22;;;1.34;75.05
5455;BME280;2750;49.050;9.250;2022-12-18T19:40:33;99892.13;;;1.61;75.61
5455;BME280;2750;49.050;9.250;2022-12-18T19:45:36;99870.25;;;0.96;76.06
5455;BME280;2750;49.050;9.250;2022-12-18T19:50:39;99875.13;;;0.71;77.29
5455;BME280;2750;49.050;9.250;2022-12-18T19:55:42;99861.34;;;0.54;78.14
5455;BME280;2750;49.050;9.250;2022-12-18T20:00:45;99846.19;;;0.72;78.80
5455;BME280;2750;49.050;9.250;2022-12-18T20:05:46;99836.19;;;0.96;77.01
5455;BME280;2750;49.050;9.250;2022-12-18T20:10:47;99846.53;;;1.07;76.39
5455;BME280;2750;49.050;9.250;2022-12-18T20:15:50;99839.16;;;1.41;75.83
5455;BME280;2750;49.050;9.250;2022-12-18T20:20:52;99845.28;;;1.69;75.52
5455;BME280;2750;49.050;9.250;2022-12-18T20:25:54;99826.78;;;2.17;73.18
5455;BME280;2750;49.050;9.250;2022-12-18T20:31:01;99817.25;;;1.83;73.42
5455;BME280;2750;49.050;9.250;2022-12-18T20:36:05;99819.03;;;2.04;73.89
5455;BME280;2750;49.050;9.250;2022-12-18T20:41:08;99809.59;;;1.92;73.44
5455;BME280;2750;49.050;9.250;2022-12-18T20:46:13;99816.25;;;1.57;74.38
5455;BME280;2750;49.050;9.250;2022-12-18T20:51:16;99810.28;;;1.59;74.06
5455;BME280;2750;49.050;9.250;2022-12-18T20:56:20;99823.28;;;1.97;73.08
5455;BME280;2750;49.050;9.250;2022-12-18T21:01:24;99830.19;;;2.19;73.49
5455;BME280;2750;49.050;9.250;2022-12-18T21:06:25;99817.44;;;2.25;72.73
5455;BME280;2750;49.050;9.250;2022-12-18T21:11:28;99821.72;;;2.35;71.16
5455;BME280;2750;49.050;9.250;2022-12-18T21:16:49;99802.00;;;2.03;72.81
5455;BME280;2750;49.050;9.250;2022-12-18T21:21:52;99818.19;;;2.03;72.84
5455;BME280;2750;49.050;9.250;2022-12-18T21:26:54;99813.13;;;2.18;73.36
5455;BME280;2750;49.050;9.250;2022-12-18T21:31:56;99806.38;;;2.40;72.21
5455;BME280;2750;49.050;9.250;2022-12-18T21:36:59;99810.66;;;2.49;71.89
5455;BME280;2750;49.050;9.250;2022-12-18T21:42:01;99814.09;;;2.49;71.89
5455;BME280;2750;49.050;9.250;2022-12-18T21:47:22;99829.47;;;2.52;71.85
5455;BME280;2750;49.050;9.250;2022-12-18T21:52:24;99816.63;;;2.48;71.62
5455;BME280;2750;49.050;9.250;2022-12-18T21:57:25;99816.59;;;2.35;72.16
5455;BME280;2750;49.050;9.250;2022-12-18T22:02:28;99791.88;;;2.44;72.46
5455;BME280;2750;49.050;9.250;2022-12-18T22:07:30;99791.00;;;2.38;72.21
5455;BME280;2750;49.050;9.250;2022-12-18T22:12:32;99796.19;;;2.70;72.17
5455;BME280;2750;49.050;9.250;2022-12-18T22:17:38;99808.16;;;3.00;71.76
5455;BME280;2750;49.050;9.250;2022-12-18T22:22:39;99799.63;;;3.04;71.76
5455;BME280;2750;49.050;9.250;2022-12-18T22:27:41;99796.16;;;2.58;71.87
5455;BME280;2750;49.050;9.250;2022-12-18T22:32:43;99792.63;;;2.12;73.99
5455;BME280;2750;49.050;9.250;2022-12-18T22:37:45;99806.34;;;2.35;73.06
5455;BME280;2750;49.050;9.250;2022-12-18T22:42:46;99802.09;;;2.37;73.32
5455;BME280;2750;49.050;9.250;2022-12-18T22:47:49;99800.41;;;2.39;72.68
5455;BME280;2750;49.050;9.250;2022-12-18T22:52:51;99802.81;;;2.00;74.55
5455;BME280;2750;49.050;9.250;2022-12-18T22:57:52;99807.09;;;2.06;73.46
5455;BME280;2750;49.050;9.250;2022-12-18T23:02:55;99801.19;;;2.20;73.97
5455;BME280;2750;49.050;9.250;2022-12-18T23:07:57;99797.03;;;2.62;73.55
5455;BME280;2750;49.050;9.250;2022-12-18T23:12:59;99804.75;;;2.81;72.88
5455;BME280;2750;49.050;9.250;2022-12-18T23:18:02;99809.00;;;2.84;72.74
5455;BME280;2750;49.050;9.250;2022-12-18T23:23:03;99810.69;;;2.59;72.85
5455;BME280;2750;49.050;9.250;2022-12-18T23:28:05;99805.59;;;2.71;72.88
5455;BME280;2750;49.050;9.250;2022-12-18T23:33:08;99792.78;;;2.67;73.58
5455;BME280;2750;49.050;9.250;2022-12-18T23:38:09;99813.25;;;2.64;73.58
5455;BME280;2750;49.050;9.250;2022-12-18T23:43:11;99803.00;;;2.49;73.61
5455;BME280;2750;49.050;9.250;2022-12-18T23:48:14;99827.53;;;1.98;74.96
5455;BME280;2750;49.050;9.250;2022-12-18T23:53:15;99830.13;;;2.04;75.13
5455;BME280;2750;49.050;9.250;2022-12-18T23:58:18;99819.88;;;2.01;74.66
